Flight Track Log - Related Links

Times and Time Zones

All times are in EDT time to prevent confusion due to time zone crossing. See the C-GEJD flight status page for this flight to view local times or setup timezone preferences in your user account.

Time Position Orientation Groundspeed Altitude Reporting Facility
EDT Latitude Longitude Course Direction KTS MPH feet Rate Location/Type
Sat 01:36:01 AM 45.3000 -75.6667 90° East 70 81 500  Level Montreal Center
Sat 01:37:01 AM 45.2667 -75.7000 215° Southwest 170 196 4,400 3,750 Climbing Montreal Center
Sat 01:38:01 AM 45.2500 -75.6667 125° Southeast 210 242 8,000 3,550 Climbing Montreal Center
Sat 01:39:01 AM 45.2333 -75.5667 103° East 280 322 11,500 2,500 Climbing Montreal Center
Sat 01:40:00 AM 45.1833 -75.1243 90° East  Level FlightAware Approximate
Sat 01:40:01 AM 45.2167 -75.4167 99° East 340 391 13,000  Level Montreal Center
Sat 01:41:00 AM 45.1667 -75.0315 90° East  Level FlightAware Approximate
Sat 01:41:01 AM 45.1833 -75.2833 109° East 360 414 13,000  Level Montreal Center
Sat 01:42:01 AM 45.1833 -75.1333 90° East 370 426 13,000  Level Montreal Center
Sat 01:43:01 AM 45.2000 -75.0000 80° East 370 426 13,000  Level Montreal Center
Sat 01:44:01 AM 45.2000 -74.8500 90° East 370 426 13,000  Level Montreal Center
Sat 01:45:01 AM 45.2167 -74.7000 81° East 370 426 13,000  Level Montreal Center
Sat 01:46:01 AM 45.2333 -74.5667 80° East 370 426 13,000 -350 Level Montreal Center
Sat 01:47:01 AM 45.2500 -74.4167 81° East 350 403 12,300 -1,300 Descending Montreal Center
Sat 01:48:01 AM 45.2667 -74.3000 78° East 300 345 10,400 -2,250 Descending Montreal Center
Sat 01:49:01 AM 45.2833 -74.1833 78° East 300 345 7,800 -2,300 Descending Montreal Center
Sat 01:50:01 AM 45.2667 -74.0667 101° East 270 311 5,800 -1,950 Descending Montreal Center
Sat 01:51:01 AM 45.2833 -74.0000 70° East 230 265 3,900 -1,400 Descending Montreal Center
Sat 01:52:01 AM 45.3000 -73.9167 74° East 180 207 3,000 -450 Descending Montreal Center
Sat 01:53:01 AM 45.3333 -73.8667 47° Northeast 160 184 3,000 -450 Level Montreal Center
Sat 01:54:01 AM 45.3667 -73.8167 46° Northeast 160 184 2,100 -850 Descending Montreal Center
Sat 01:55:01 AM 45.4000 -73.8000 19° North 150 173 1,300 -750 Descending Montreal Center
Sat 01:56:01 AM 45.4333 -73.7500 46° Northeast 120 138 600 -600 Descending Montreal Center
Sat 01:57:01 AM 45.4500 -73.7167 55° Northeast 110 127 100 -250 Descending Montreal Center
Sat 01:58:01 AM 45.4667 -73.7000 35° Northeast 40 46 100  Level Montreal Center

Login

Don't have an account? Register now (free) for customized features, flight alerts, and more!